Time;durP1;ratioP1;P1;durP2;ratioP2;P2;SDS_P1;SDS_P2;PMS_P1;PMS_P2;Temp;Humidity;BMP_temperature;BMP_pressure;BME280_temperature;BME280_humidity;BME280_pressure;Samples;Min_cycle;Max_cycle;Signal;HPM_P1;HPM_P2
2021/06/24 00:02:14;;;;;;;4.50;3.50;;;15.80;99.90;;;;;;5059074;28;20637;-52
2021/06/24 00:04:42;;;;;;;6.73;3.70;;;15.80;99.90;;;;;;5059686;28;20231;-52
2021/06/24 00:07:08;;;;;;;8.33;3.60;;;15.60;99.90;;;;;;5061121;28;20193;-52
2021/06/24 00:09:36;;;;;;;8.23;3.43;;;15.60;99.90;;;;;;5061933;28;20345;-52
2021/06/24 00:12:03;;;;;;;5.83;3.20;;;15.60;99.90;;;;;;5062566;28;20242;-52
2021/06/24 00:14:30;;;;;;;7.50;3.27;;;15.60;99.90;;;;;;5054305;28;20190;-52
2021/06/24 00:16:56;;;;;;;7.00;3.37;;;15.70;99.90;;;;;;5056756;28;20243;-52
2021/06/24 00:19:23;;;;;;;5.27;2.87;;;15.80;99.90;;;;;;5060209;28;20196;-53
2021/06/24 00:21:50;;;;;;;4.60;3.17;;;15.80;99.90;;;;;;5059517;28;20260;-52
2021/06/24 00:24:17;;;;;;;7.97;3.67;;;15.70;99.90;;;;;;5057171;28;20375;-53
2021/06/24 00:26:44;;;;;;;4.90;3.07;;;15.60;99.90;;;;;;5059206;28;20298;-53
2021/06/24 00:29:10;;;;;;;5.90;3.40;;;15.60;99.90;;;;;;5058417;28;20279;-53
2021/06/24 00:31:37;;;;;;;5.60;3.13;;;15.60;99.90;;;;;;5056291;28;20240;-53
2021/06/24 00:34:04;;;;;;;6.87;3.30;;;15.50;99.90;;;;;;5056835;28;20294;-53
2021/06/24 00:36:31;;;;;;;6.97;2.97;;;15.60;99.90;;;;;;5056739;28;20205;-52
2021/06/24 00:39:00;;;;;;;4.67;3.50;;;15.60;99.90;;;;;;5058425;28;20257;-52
2021/06/24 00:41:28;;;;;;;5.57;3.13;;;15.80;99.90;;;;;;5056146;28;20201;-53
2021/06/24 00:43:55;;;;;;;12.77;4.23;;;15.70;99.90;;;;;;5055981;28;20226;-52
2021/06/24 00:46:21;;;;;;;6.17;3.23;;;15.80;99.90;;;;;;5054971;28;20284;-52
2021/06/24 00:48:56;;;;;;;3.80;3.40;;;15.80;99.90;;;;;;5056729;28;20578;-53
2021/06/24 00:51:23;;;;;;;4.67;3.70;;;15.80;99.90;;;;;;5056630;28;20364;-50
2021/06/24 00:53:50;;;;;;;5.00;3.23;;;15.60;99.90;;;;;;5053860;28;20269;-51
2021/06/24 00:56:26;;;;;;;7.23;3.40;;;15.60;99.90;;;;;;5054492;28;20400;-51
2021/06/24 00:58:53;;;;;;;7.33;3.37;;;15.60;99.90;;;;;;5056999;28;20602;-52
2021/06/24 01:01:20;;;;;;;10.07;4.03;;;15.70;99.90;;;;;;5057363;28;20915;-52
2021/06/24 01:03:47;;;;;;;5.50;3.27;;;15.80;99.90;;;;;;5057418;28;20217;-51
2021/06/24 01:06:14;;;;;;;3.43;3.00;;;15.80;99.90;;;;;;5061700;28;20226;-51
2021/06/24 01:08:41;;;;;;;8.77;3.73;;;15.60;99.90;;;;;;5058820;28;20341;-52
2021/06/24 01:11:08;;;;;;;4.10;3.70;;;15.40;99.90;;;;;;5058201;28;20278;-52
2021/06/24 01:13:35;;;;;;;5.23;3.03;;;15.40;99.90;;;;;;5058908;28;20242;-52
2021/06/24 01:16:02;;;;;;;6.83;3.30;;;15.30;99.90;;;;;;5056943;28;20199;-52
2021/06/24 01:18:29;;;;;;;6.13;3.47;;;15.30;99.90;;;;;;5055537;28;20307;-52
2021/06/24 01:20:56;;;;;;;6.10;3.57;;;15.20;99.90;;;;;;5054108;28;20260;-52
2021/06/24 01:23:23;;;;;;;7.37;4.10;;;15.30;99.90;;;;;;5056643;28;20364;-52
2021/06/24 01:25:50;;;;;;;5.07;3.47;;;15.30;99.90;;;;;;5060049;28;20568;-52
2021/06/24 01:28:18;;;;;;;6.53;3.50;;;15.40;99.90;;;;;;5059958;28;20651;-52
2021/06/24 01:30:45;;;;;;;6.07;3.67;;;15.50;99.90;;;;;;5055058;28;20209;-52
2021/06/24 01:33:14;;;;;;;5.77;3.33;;;15.40;99.90;;;;;;5056434;28;20255;-52
2021/06/24 01:35:41;;;;;;;8.97;3.60;;;15.50;99.90;;;;;;5056233;28;20683;-51
2021/06/24 01:38:10;;;;;;;5.73;3.70;;;15.40;99.90;;;;;;5058228;28;20202;-52
2021/06/24 01:40:37;;;;;;;5.93;3.63;;;15.30;99.90;;;;;;5056836;28;20218;-52
2021/06/24 01:43:05;;;;;;;5.30;3.40;;;15.40;99.90;;;;;;5058853;28;20215;-52
2021/06/24 01:45:33;;;;;;;7.83;3.57;;;15.40;99.90;;;;;;5053447;28;20194;-52
2021/06/24 01:48:00;;;;;;;4.27;3.40;;;15.40;99.90;;;;;;5059313;28;20285;-52
2021/06/24 01:50:27;;;;;;;8.67;4.03;;;15.30;99.90;;;;;;5060289;28;20601;-52
2021/06/24 01:52:54;;;;;;;6.27;3.37;;;15.20;99.90;;;;;;5054035;28;20276;-52
2021/06/24 01:55:34;;;;;;;7.30;3.43;;;15.10;99.90;;;;;;5056310;28;20236;-52
2021/06/24 01:58:03;;;;;;;7.53;3.43;;;15.10;99.90;;;;;;5054673;28;20195;-52
2021/06/24 02:00:30;;;;;;;7.17;3.60;;;15.10;99.90;;;;;;5060452;28;20195;-52
2021/06/24 02:02:58;;;;;;;5.90;3.23;;;15.10;99.90;;;;;;5057997;28;20212;-52
2021/06/24 02:05:25;;;;;;;6.13;3.57;;;15.20;99.90;;;;;;5064621;28;20245;-52
2021/06/24 02:07:52;;;;;;;8.40;4.13;;;15.20;99.90;;;;;;5062145;28;20285;-52
2021/06/24 02:10:19;;;;;;;6.40;4.10;;;15.30;99.90;;;;;;5060865;28;20282;-52
2021/06/24 02:12:46;;;;;;;7.27;3.93;;;15.10;99.90;;;;;;5062437;28;20291;-52
2021/06/24 02:15:14;;;;;;;7.93;3.50;;;15.10;99.90;;;;;;5061168;28;20218;-52
2021/06/24 02:17:41;;;;;;;9.23;3.50;;;15.00;99.90;;;;;;5059961;28;20339;-52
2021/06/24 02:20:12;;;;;;;4.60;3.47;;;15.10;99.90;;;;;;5061441;28;20281;-52
2021/06/24 02:22:39;;;;;;;7.10;3.90;;;15.10;99.90;;;;;;5057333;28;20684;-52
2021/06/24 02:25:07;;;;;;;7.40;3.40;;;15.30;99.90;;;;;;5060181;28;20217;-52
2021/06/24 02:27:34;;;;;;;4.97;3.70;;;15.20;99.90;;;;;;5061223;28;20301;-52
2021/06/24 02:30:02;;;;;;;6.73;3.37;;;15.10;99.90;;;;;;5062280;28;20695;-52
2021/06/24 02:32:29;;;;;;;7.23;3.63;;;15.20;99.90;;;;;;5059829;28;20202;-52
2021/06/24 02:34:57;;;;;;;7.10;3.77;;;15.00;99.90;;;;;;5058682;28;20653;-52
2021/06/24 02:37:24;;;;;;;6.13;3.67;;;15.10;99.90;;;;;;5059983;28;20306;-52
2021/06/24 02:39:50;;;;;;;5.30;3.27;;;15.20;99.90;;;;;;5058239;28;20221;-51
2021/06/24 02:42:17;;;;;;;8.47;3.87;;;15.10;99.90;;;;;;5059054;28;20730;-52
2021/06/24 02:44:44;;;;;;;10.67;3.63;;;15.20;99.90;;;;;;5060425;28;20306;-52
2021/06/24 02:47:11;;;;;;;5.60;3.50;;;15.20;99.90;;;;;;5057725;28;20254;-52
2021/06/24 02:49:42;;;;;;;6.57;4.10;;;15.20;99.90;;;;;;5059457;28;20273;-52
2021/06/24 02:52:10;;;;;;;9.63;3.70;;;15.20;99.90;;;;;;5058792;28;20258;-52
2021/06/24 02:54:36;;;;;;;7.70;3.40;;;15.10;99.90;;;;;;5058721;28;20310;-52
2021/06/24 02:57:04;;;;;;;6.73;3.90;;;15.00;99.90;;;;;;5062055;28;20965;-52
2021/06/24 02:59:30;;;;;;;10.03;3.70;;;15.00;99.90;;;;;;5060826;28;20293;-52
2021/06/24 03:01:57;;;;;;;5.23;3.40;;;15.10;99.90;;;;;;5060129;28;20563;-52
2021/06/24 03:04:24;;;;;;;6.47;3.80;;;15.00;99.90;;;;;;5061657;28;20485;-52
2021/06/24 03:06:52;;;;;;;4.63;3.37;;;15.10;99.90;;;;;;5058922;28;20286;-52
2021/06/24 03:09:20;;;;;;;7.23;3.63;;;15.10;99.90;;;;;;5057832;28;20198;-52
2021/06/24 03:11:48;;;;;;;5.13;3.87;;;15.00;99.90;;;;;;5057133;28;20205;-52
2021/06/24 03:14:15;;;;;;;6.13;3.97;;;14.90;99.90;;;;;;5059297;28;20364;-52
2021/06/24 03:16:42;;;;;;;4.40;3.70;;;14.90;99.90;;;;;;5058690;28;20355;-52
2021/06/24 03:19:09;;;;;;;5.53;3.53;;;14.90;99.90;;;;;;5058601;28;20276;-52
2021/06/24 03:21:36;;;;;;;8.37;4.30;;;15.00;99.90;;;;;;5055948;28;20282;-53
2021/06/24 03:24:04;;;;;;;6.93;3.70;;;14.90;99.90;;;;;;5045612;28;20318;-52
2021/06/24 03:26:30;;;;;;;5.07;3.93;;;14.80;99.90;;;;;;5058934;28;20289;-53
2021/06/24 03:28:58;;;;;;;6.23;4.10;;;14.80;99.90;;;;;;5060361;28;20290;-53
2021/06/24 03:31:25;;;;;;;6.50;4.03;;;14.80;99.90;;;;;;5058638;28;20299;-53
2021/06/24 03:33:52;;;;;;;4.87;3.60;;;14.90;99.90;;;;;;5060625;28;20642;-53
2021/06/24 03:36:20;;;;;;;6.13;4.67;;;14.80;99.90;;;;;;5058521;28;20306;-53
2021/06/24 03:38:48;;;;;;;6.13;3.67;;;14.80;99.90;;;;;;5063068;28;20205;-52
2021/06/24 03:41:23;;;;;;;5.57;4.00;;;14.70;99.90;;;;;;5059738;28;20243;-52
2021/06/24 03:43:52;;;;;;;6.90;3.97;;;14.80;99.90;;;;;;5058714;28;20441;-52
2021/06/24 03:46:20;;;;;;;6.03;3.93;;;14.70;99.90;;;;;;5058169;28;20228;-52
2021/06/24 03:48:47;;;;;;;5.63;3.93;;;14.70;99.90;;;;;;5060581;28;20320;-52
2021/06/24 03:51:14;;;;;;;7.47;4.03;;;14.70;99.90;;;;;;5060187;28;20329;-51
2021/06/24 03:53:41;;;;;;;6.17;4.60;;;14.80;99.90;;;;;;5067503;28;20302;-52
2021/06/24 03:56:09;;;;;;;7.40;4.23;;;14.90;99.90;;;;;;5055744;28;20306;-51
2021/06/24 03:58:36;;;;;;;6.13;4.20;;;14.80;99.90;;;;;;5056663;28;20629;-51
2021/06/24 04:01:03;;;;;;;5.07;3.97;;;14.80;99.90;;;;;;5055313;28;20293;-52
2021/06/24 04:03:29;;;;;;;7.30;4.27;;;14.80;99.90;;;;;;5060114;28;20302;-52
2021/06/24 04:05:56;;;;;;;6.00;4.47;;;14.90;99.90;;;;;;5060704;28;20717;-52
2021/06/24 04:08:23;;;;;;;6.07;4.03;;;14.70;99.90;;;;;;5058143;28;20293;-52
2021/06/24 04:11:02;;;;;;;6.97;4.60;;;14.80;99.90;;;;;;5053768;28;20198;-52
2021/06/24 04:13:31;;;;;;;7.17;3.87;;;14.80;99.90;;;;;;5058867;28;20715;-52
2021/06/24 04:15:58;;;;;;;8.83;4.17;;;14.80;99.90;;;;;;5056088;28;20329;-52
2021/06/24 04:18:25;;;;;;;5.27;4.80;;;14.80;99.90;;;;;;5056412;28;20415;-53
2021/06/24 04:20:52;;;;;;;7.13;4.30;;;14.80;99.90;;;;;;5056270;28;20211;-53
2021/06/24 04:23:18;;;;;;;7.00;4.30;;;14.90;99.90;;;;;;5057280;28;20313;-53
2021/06/24 04:25:45;;;;;;;7.37;4.43;;;15.00;99.90;;;;;;5056030;28;20353;-53
2021/06/24 04:28:12;;;;;;;7.43;4.57;;;15.00;99.90;;;;;;5054983;28;20216;-53
2021/06/24 04:30:39;;;;;;;6.93;4.27;;;15.00;99.90;;;;;;5055219;28;20196;-53
2021/06/24 04:33:06;;;;;;;8.67;4.70;;;15.10;99.90;;;;;;5057787;28;20294;-51
2021/06/24 04:35:36;;;;;;;5.20;4.23;;;15.00;99.90;;;;;;5054560;28;20231;-53
2021/06/24 04:38:03;;;;;;;5.10;4.00;;;14.90;99.90;;;;;;5059787;28;20227;-51
2021/06/24 04:40:30;;;;;;;5.63;4.73;;;14.90;99.90;;;;;;5057524;28;20194;-52
2021/06/24 04:42:57;;;;;;;7.83;4.50;;;14.70;99.90;;;;;;5056694;28;20326;-52
2021/06/24 04:45:23;;;;;;;7.33;4.30;;;14.80;99.90;;;;;;5056205;28;20617;-52
2021/06/24 04:47:54;;;;;;;8.80;4.57;;;14.80;99.90;;;;;;5059044;28;20215;-52
2021/06/24 04:50:21;;;;;;;6.80;4.57;;;14.80;99.90;;;;;;5057110;28;20385;-51
2021/06/24 04:52:48;;;;;;;6.27;3.93;;;14.80;99.90;;;;;;5061389;28;20241;-51
2021/06/24 04:55:15;;;;;;;5.53;4.17;;;14.90;99.90;;;;;;5058861;28;20259;-52
2021/06/24 04:57:43;;;;;;;6.17;4.23;;;15.10;99.90;;;;;;5057156;28;20287;-52
2021/06/24 05:00:10;;;;;;;7.27;4.17;;;15.00;99.90;;;;;;5057585;28;20311;-52
2021/06/24 05:02:37;;;;;;;7.87;4.17;;;14.80;99.90;;;;;;5056886;28;20230;-52
2021/06/24 05:05:06;;;;;;;9.67;4.80;;;14.70;99.90;;;;;;5058320;28;20239;-52
2021/06/24 05:07:35;;;;;;;5.83;4.70;;;14.80;99.90;;;;;;5054272;28;20339;-52
2021/06/24 05:10:04;;;;;;;4.40;4.00;;;14.90;99.90;;;;;;5054296;28;20251;-52
2021/06/24 05:12:31;;;;;;;7.57;4.57;;;15.10;99.90;;;;;;5057584;28;20620;-52
2021/06/24 05:15:00;;;;;;;5.23;4.00;;;15.20;99.90;;;;;;5054438;28;20246;-52
2021/06/24 05:17:28;;;;;;;6.63;4.97;;;15.00;99.90;;;;;;5056781;28;20702;-53
2021/06/24 05:19:57;;;;;;;7.47;4.53;;;15.10;99.90;;;;;;5056262;28;20207;-53
2021/06/24 05:22:25;;;;;;;6.70;4.43;;;15.00;99.90;;;;;;5055833;28;20229;-52
2021/06/24 05:24:53;;;;;;;6.03;4.60;;;15.00;99.90;;;;;;5054967;28;20712;-52
2021/06/24 05:27:19;;;;;;;4.87;4.10;;;15.00;99.90;;;;;;5052566;28;20225;-52
2021/06/24 05:29:46;;;;;;;6.30;4.37;;;15.00;99.90;;;;;;5059360;28;20272;-53
2021/06/24 05:32:13;;;;;;;9.30;4.33;;;15.00;99.90;;;;;;5055175;28;20751;-52
2021/06/24 05:34:40;;;;;;;5.87;3.73;;;15.00;99.90;;;;;;5053338;28;20203;-52
2021/06/24 05:37:07;;;;;;;6.10;4.90;;;15.20;99.90;;;;;;5052360;28;20305;-52
2021/06/24 05:39:34;;;;;;;8.37;4.33;;;15.40;99.90;;;;;;5050997;28;20311;-52
2021/06/24 05:42:01;;;;;;;6.93;4.13;;;15.50;99.90;;;;;;5061246;28;20297;-51
2021/06/24 05:44:28;;;;;;;6.77;4.23;;;15.40;99.90;;;;;;5061645;28;20303;-52
2021/06/24 05:46:55;;;;;;;6.67;4.33;;;15.40;99.90;;;;;;5062385;28;20297;-53
2021/06/24 05:49:22;;;;;;;9.57;4.40;;;15.50;99.90;;;;;;5061415;28;20211;-51
2021/06/24 05:51:49;;;;;;;7.57;4.07;;;15.60;99.90;;;;;;5061298;28;20223;-52
2021/06/24 05:54:17;;;;;;;5.57;4.03;;;15.40;99.90;;;;;;5062081;28;20287;-53
2021/06/24 05:56:44;;;;;;;5.47;4.10;;;15.40;99.90;;;;;;5061089;28;20215;-51
2021/06/24 05:59:11;;;;;;;6.77;4.20;;;15.60;99.90;;;;;;5064747;28;20294;-53
2021/06/24 06:01:42;;;;;;;8.00;4.80;;;15.60;99.90;;;;;;5055480;28;20213;-52
2021/06/24 06:04:10;;;;;;;7.17;4.30;;;15.60;99.90;;;;;;5063063;28;20397;-52
2021/06/24 06:06:38;;;;;;;6.27;4.27;;;15.60;99.90;;;;;;5060027;28;20259;-51
2021/06/24 06:09:05;;;;;;;5.13;4.60;;;15.90;99.90;;;;;;5062993;28;20206;-52
2021/06/24 06:11:33;;;;;;;9.17;4.67;;;15.80;99.90;;;;;;5064086;28;20227;-52
2021/06/24 06:14:00;;;;;;;6.40;4.27;;;15.80;99.90;;;;;;5066672;28;20556;-52
2021/06/24 06:16:27;;;;;;;5.17;4.40;;;15.80;99.90;;;;;;5066553;28;20270;-52
2021/06/24 06:18:56;;;;;;;5.17;3.90;;;15.90;99.90;;;;;;5050164;28;20245;-52
2021/06/24 06:21:24;;;;;;;7.77;4.23;;;15.70;99.90;;;;;;5065491;28;20225;-52
2021/06/24 06:23:51;;;;;;;9.70;4.23;;;15.60;99.90;;;;;;5066546;28;20226;-53
2021/06/24 06:26:17;;;;;;;6.77;3.80;;;15.60;99.90;;;;;;5065972;28;20653;-53
2021/06/24 06:28:44;;;;;;;5.40;4.73;;;15.60;99.90;;;;;;5072023;28;20594;-50
2021/06/24 06:31:12;;;;;;;6.93;4.37;;;15.60;99.90;;;;;;5068708;28;20205;-54
2021/06/24 06:33:39;;;;;;;6.53;4.23;;;15.60;99.90;;;;;;5064012;28;20285;-52
2021/06/24 06:36:05;;;;;;;7.03;4.27;;;15.40;99.90;;;;;;5068741;28;20251;-52
2021/06/24 06:38:32;;;;;;;5.40;4.10;;;15.50;99.90;;;;;;5069064;28;20220;-52
2021/06/24 06:40:59;;;;;;;6.33;4.20;;;15.50;99.90;;;;;;5053632;28;20365;-52
2021/06/24 06:43:26;;;;;;;6.97;4.30;;;15.40;99.90;;;;;;5052127;28;20234;-52
2021/06/24 06:45:53;;;;;;;5.23;4.40;;;15.50;99.90;;;;;;5063446;28;20244;-52
2021/06/24 06:48:20;;;;;;;9.60;4.80;;;15.60;99.90;;;;;;5069681;28;20591;-53
2021/06/24 06:50:48;;;;;;;7.20;4.33;;;15.60;99.90;;;;;;5065020;28;20228;-53
2021/06/24 06:53:15;;;;;;;9.97;4.33;;;15.60;99.90;;;;;;5070724;28;20198;-53
2021/06/24 06:55:42;;;;;;;5.83;4.20;;;15.80;99.90;;;;;;5061180;28;20234;-53
2021/06/24 06:58:09;;;;;;;6.03;4.13;;;15.80;99.90;;;;;;5061566;28;20263;-52
2021/06/24 07:00:35;;;;;;;4.27;3.87;;;16.00;99.90;;;;;;5067809;28;20215;-52
2021/06/24 07:03:03;;;;;;;8.13;5.10;;;16.00;99.90;;;;;;5065476;28;20203;-52
2021/06/24 07:05:30;;;;;;;7.00;4.53;;;15.90;99.90;;;;;;5067313;28;20392;-52
2021/06/24 07:07:58;;;;;;;6.30;4.43;;;15.80;99.90;;;;;;5066962;28;20196;-52
2021/06/24 07:10:26;;;;;;;5.77;4.00;;;15.80;99.90;;;;;;5066135;28;20576;-52
2021/06/24 07:12:53;;;;;;;7.87;4.50;;;15.80;99.90;;;;;;5061422;28;20266;-52
2021/06/24 07:15:20;;;;;;;7.40;4.07;;;15.80;99.90;;;;;;5067213;28;20207;-52
2021/06/24 07:17:47;;;;;;;8.03;4.30;;;15.90;99.90;;;;;;5066981;28;20254;-52
2021/06/24 07:20:15;;;;;;;8.70;4.27;;;16.20;99.90;;;;;;5066112;28;20238;-52
2021/06/24 07:22:42;;;;;;;6.20;4.00;;;16.40;99.90;;;;;;5067682;28;20253;-52
2021/06/24 07:25:13;;;;;;;6.50;4.60;;;16.40;99.90;;;;;;5064961;28;20260;-52
2021/06/24 07:27:40;;;;;;;8.10;4.20;;;16.40;99.90;;;;;;5065232;28;20219;-52
2021/06/24 07:30:07;;;;;;;6.40;4.00;;;16.30;99.90;;;;;;5066949;28;20551;-52
2021/06/24 07:32:34;;;;;;;7.03;4.73;;;16.40;99.90;;;;;;5068408;28;20203;-53
2021/06/24 07:35:02;;;;;;;6.67;4.50;;;16.50;99.90;;;;;;5065810;28;20536;-53
2021/06/24 07:37:29;;;;;;;6.10;4.30;;;16.50;99.90;;;;;;5068054;28;20206;-51
2021/06/24 07:39:56;;;;;;;8.57;4.70;;;16.70;99.90;;;;;;5064548;28;20227;-51
2021/06/24 07:42:23;;;;;;;7.47;4.93;;;16.60;99.90;;;;;;5066655;28;20716;-53
2021/06/24 07:44:49;;;;;;;4.60;4.20;;;16.50;99.90;;;;;;5067472;28;20720;-52
2021/06/24 07:47:18;;;;;;;7.90;4.60;;;16.60;99.90;;;;;;5057271;28;20333;-53
2021/06/24 07:49:46;;;;;;;6.93;4.70;;;16.60;99.90;;;;;;5054720;28;20212;-52
2021/06/24 07:52:14;;;;;;;9.10;4.87;;;16.70;99.90;;;;;;5058028;28;20665;-52
2021/06/24 07:54:40;;;;;;;6.27;4.77;;;16.80;99.90;;;;;;5065220;28;20261;-52
2021/06/24 07:57:07;;;;;;;6.37;5.30;;;16.90;99.90;;;;;;5066824;28;20228;-53
2021/06/24 07:59:34;;;;;;;5.90;5.00;;;16.80;99.90;;;;;;5066192;28;20743;-51
2021/06/24 08:02:01;;;;;;;7.90;4.90;;;17.00;99.90;;;;;;5063264;28;20204;-52
2021/06/24 08:04:28;;;;;;;4.93;4.43;;;17.10;99.90;;;;;;5062573;28;20286;-52
2021/06/24 08:06:56;;;;;;;7.60;4.77;;;17.30;99.90;;;;;;5061199;28;20202;-51
2021/06/24 08:09:23;;;;;;;8.77;4.63;;;17.10;99.90;;;;;;5062690;28;20205;-51
2021/06/24 08:11:50;;;;;;;6.07;4.77;;;17.00;99.90;;;;;;5063554;28;20202;-51
2021/06/24 08:14:17;;;;;;;12.50;5.20;;;17.20;99.90;;;;;;5063343;28;20287;-51
2021/06/24 08:16:44;;;;;;;6.67;4.50;;;17.40;99.90;;;;;;5067645;28;20307;-51
2021/06/24 08:19:11;;;;;;;8.27;4.30;;;17.50;99.90;;;;;;5064443;28;20200;-52
2021/06/24 08:21:38;;;;;;;6.47;4.37;;;17.40;99.90;;;;;;5066042;28;20291;-52
2021/06/24 08:24:05;;;;;;;5.90;4.27;;;17.00;99.90;;;;;;5067026;28;20225;-52
2021/06/24 08:26:32;;;;;;;6.87;4.17;;;17.00;99.90;;;;;;5062810;28;20238;-52
2021/06/24 08:28:59;;;;;;;5.27;4.10;;;17.00;99.90;;;;;;5064361;28;20225;-52
2021/06/24 08:31:26;;;;;;;5.90;4.57;;;17.30;99.90;;;;;;5061753;28;20200;-52
2021/06/24 08:33:53;;;;;;;4.67;3.80;;;17.30;99.90;;;;;;5068528;28;20204;-51
2021/06/24 08:36:21;;;;;;;4.93;3.87;;;17.50;99.90;;;;;;5060963;28;20366;-52
2021/06/24 08:38:48;;;;;;;6.07;3.57;;;17.50;99.90;;;;;;5065650;28;20242;-52
2021/06/24 08:41:15;;;;;;;6.17;4.00;;;17.60;99.90;;;;;;5060722;28;20208;-52
2021/06/24 08:43:42;;;;;;;8.43;4.23;;;17.70;99.90;;;;;;5061625;28;20211;-51
2021/06/24 08:46:10;;;;;;;6.27;4.00;;;17.60;99.90;;;;;;5067764;28;20242;-52
2021/06/24 08:48:38;;;;;;;6.70;3.93;;;17.60;99.90;;;;;;5060189;28;20233;-52
2021/06/24 08:51:07;;;;;;;9.27;4.30;;;17.40;99.90;;;;;;5058564;28;20605;-52
2021/06/24 08:53:35;;;;;;;11.93;4.80;;;17.20;99.90;;;;;;5063740;28;20644;-52
2021/06/24 08:56:02;;;;;;;9.63;4.27;;;17.10;99.90;;;;;;5057873;28;20287;-51
2021/06/24 08:58:29;;;;;;;9.27;5.10;;;17.20;99.90;;;;;;5058610;28;20728;-52
2021/06/24 09:00:56;;;;;;;7.50;4.27;;;17.40;99.90;;;;;;5059461;28;20643;-53
2021/06/24 09:03:27;;;;;;;5.93;4.13;;;17.60;99.90;;;;;;5061175;28;20207;-52
2021/06/24 09:06:02;;;;;;;4.87;4.23;;;17.30;99.90;;;;;;5059851;28;20619;-52
2021/06/24 09:08:46;;;;;;;6.00;3.97;;;17.60;99.90;;;;;;5058276;28;20686;-52
2021/06/24 09:11:18;;;;;;;7.73;4.70;;;17.60;99.90;;;;;;5057567;28;20289;-52
2021/06/24 09:13:57;;;;;;;4.83;3.83;;;17.30;99.90;;;;;;5057592;28;20241;-52
2021/06/24 09:16:29;;;;;;;8.03;3.70;;;17.50;99.90;;;;;;5057897;28;20305;-53
2021/06/24 09:19:15;;;;;;;5.00;4.00;;;17.70;99.90;;;;;;5053065;28;20233;-52
2021/06/24 09:21:58;;;;;;;5.13;4.20;;;17.60;99.90;;;;;;5060215;28;20297;-52
2021/06/24 09:24:40;;;;;;;4.70;4.20;;;17.80;99.90;;;;;;5057031;28;20222;-52
2021/06/24 09:27:19;;;;;;;8.10;4.37;;;17.70;99.90;;;;;;5053937;28;20919;-51
2021/06/24 09:30:15;;;;;;;4.67;4.00;;;17.60;99.90;;;;;;5058412;28;20232;-51
2021/06/24 09:32:47;;;;;;;7.10;3.83;;;17.30;99.90;;;;;;5054848;28;20452;-52
2021/06/24 09:35:25;;;;;;;6.80;4.17;;;17.50;99.90;;;;;;5058304;28;20269;-52
2021/06/24 09:38:00;;;;;;;4.60;3.90;;;17.60;99.90;;;;;;5049877;28;20286;-52
2021/06/24 09:40:54;;;;;;;5.90;3.77;;;17.50;99.90;;;;;;5052510;28;20254;-51
2021/06/24 09:43:27;;;;;;;4.77;3.90;;;17.40;99.90;;;;;;5051923;28;20202;-51
2021/06/24 09:46:15;;;;;;;8.90;4.23;;;17.20;99.90;;;;;;5061594;28;20311;-51
2021/06/24 09:48:49;;;;;;;6.10;3.83;;;17.40;99.90;;;;;;5057919;28;20210;-52
2021/06/24 09:51:18;;;;;;;8.13;3.60;;;17.40;99.90;;;;;;5058203;28;20231;-52
2021/06/24 09:53:50;;;;;;;5.73;3.23;;;17.40;99.90;;;;;;5058131;28;20233;-52
2021/06/24 09:56:22;;;;;;;6.90;3.97;;;17.30;99.90;;;;;;5057432;28;20263;-53
2021/06/24 09:58:50;;;;;;;5.77;3.53;;;17.30;99.90;;;;;;5058237;28;20206;-51
2021/06/24 10:01:30;;;;;;;7.70;4.00;;;17.30;99.90;;;;;;5062072;28;20621;-53
2021/06/24 10:03:59;;;;;;;6.13;3.90;;;17.50;98.70;;;;;;5057766;28;20749;-51
2021/06/24 10:06:26;;;;;;;4.40;3.60;;;17.60;98.50;;;;;;5058347;28;20875;-52
2021/06/24 10:08:54;;;;;;;6.33;4.10;;;17.70;97.40;;;;;;5059428;28;20231;-51
2021/06/24 10:11:22;;;;;;;8.27;3.97;;;17.60;98.10;;;;;;5058494;28;20228;-52
2021/06/24 10:13:50;;;;;;;9.20;4.40;;;17.50;98.50;;;;;;5053757;28;20346;-52
2021/06/24 10:16:18;;;;;;;5.97;4.30;;;17.50;96.50;;;;;;5059557;28;20202;-52
2021/06/24 10:18:47;;;;;;;4.70;4.30;;;17.40;99.90;;;;;;5057375;28;20205;-52
2021/06/24 10:21:17;;;;;;;5.23;4.70;;;17.50;99.90;;;;;;5057222;28;20229;-53
2021/06/24 10:24:28;;;;;;;9.07;5.30;;;17.50;99.90;;;;;;5055496;28;20227;-52
2021/06/24 10:26:58;;;;;;;7.00;4.37;;;17.60;99.90;;;;;;5035313;28;20288;-52
2021/06/24 10:29:37;;;;;;;5.77;4.50;;;17.70;99.90;;;;;;5040903;28;20903;-53
2021/06/24 10:32:40;;;;;;;6.63;4.77;;;17.90;99.90;;;;;;5040127;28;20635;-52
2021/06/24 10:35:32;;;;;;;6.23;5.03;;;18.10;99.90;;;;;;5039317;28;20499;-52
2021/06/24 10:38:01;;;;;;;9.93;4.87;;;17.90;99.90;;;;;;5035882;28;20223;-52
2021/06/24 10:40:36;;;;;;;7.73;4.67;;;17.90;99.90;;;;;;5037877;28;20227;-52
2021/06/24 10:43:05;;;;;;;11.73;5.40;;;18.00;99.90;;;;;;5038039;28;20613;-52
2021/06/24 10:45:33;;;;;;;5.73;4.67;;;17.90;94.70;;;;;;5023843;28;20323;-51
2021/06/24 10:48:23;;;;;;;5.70;4.60;;;18.00;93.10;;;;;;5042216;28;20646;-52
2021/06/24 10:51:07;;;;;;;5.77;4.23;;;17.90;92.80;;;;;;5037728;28;20227;-53
2021/06/24 10:53:49;;;;;;;7.10;5.37;;;17.90;99.00;;;;;;5044100;28;20219;-52
2021/06/24 10:56:41;;;;;;;9.67;5.20;;;17.90;95.90;;;;;;5044778;28;20691;-53
2021/06/24 10:59:26;;;;;;;5.10;4.60;;;18.10;93.40;;;;;;5064041;28;20238;-53
2021/06/24 11:02:02;;;;;;;6.20;5.10;;;18.00;94.00;;;;;;5063318;28;20593;-52
2021/06/24 11:04:41;;;;;;;7.57;5.07;;;17.90;89.10;;;;;;5062291;28;20371;-52
2021/06/24 11:07:31;;;;;;;8.03;5.00;;;18.00;94.70;;;;;;5063313;28;20306;-52
2021/06/24 11:10:17;;;;;;;8.43;4.70;;;17.90;96.00;;;;;;5059287;28;20226;-52
2021/06/24 11:12:55;;;;;;;5.77;5.00;;;18.10;90.10;;;;;;5063561;28;20221;-52
2021/06/24 11:15:41;;;;;;;10.23;5.00;;;18.20;94.00;;;;;;5064004;28;20196;-52
2021/06/24 11:18:07;;;;;;;7.87;6.00;;;18.30;85.60;;;;;;5063104;28;20315;-51
2021/06/24 11:20:43;;;;;;;5.50;4.80;;;18.20;86.10;;;;;;5057533;28;20222;-53
2021/06/24 11:23:28;;;;;;;7.17;5.17;;;18.40;86.50;;;;;;5063553;28;20336;-51
2021/06/24 11:26:15;;;;;;;5.97;5.00;;;18.50;89.90;;;;;;5062745;28;20829;-51
2021/06/24 11:29:02;;;;;;;5.93;5.23;;;18.30;86.20;;;;;;5063007;28;20237;-52
2021/06/24 11:31:36;;;;;;;6.30;5.70;;;18.30;90.00;;;;;;5058329;28;20289;-52
2021/06/24 11:36:36;;;;;;;5.67;5.17;;;18.20;88.90;;;;;;5064100;28;20625;-51
2021/06/24 11:39:04;;;;;;;6.63;5.23;;;18.30;93.80;;;;;;5065048;28;20236;-51
2021/06/24 11:41:31;;;;;;;9.03;5.70;;;18.20;94.70;;;;;;5062233;28;20291;-51
2021/06/24 11:44:00;;;;;;;8.73;6.40;;;18.30;91.50;;;;;;5063162;28;20230;-51
2021/06/24 11:46:29;;;;;;;6.30;5.70;;;18.30;91.00;;;;;;5066677;28;20351;-51
2021/06/24 12:05:29;;;;;;;10.30;6.30;;;18.50;84.40;;;;;;5063676;28;20195;-52
2021/06/24 12:07:57;;;;;;;6.97;5.77;;;18.70;89.40;;;;;;5062317;28;20257;-52
2021/06/24 12:10:23;;;;;;;7.47;5.97;;;18.30;89.60;;;;;;5060829;28;20222;-52
2021/06/24 12:12:51;;;;;;;8.80;5.90;;;18.00;96.00;;;;;;5060067;28;20240;-51
2021/06/24 12:15:18;;;;;;;9.80;6.67;;;18.10;98.10;;;;;;5061899;28;20262;-52
2021/06/24 12:17:45;;;;;;;7.77;5.70;;;18.30;92.40;;;;;;5056875;28;20282;-51
2021/06/24 12:20:23;;;;;;;8.63;6.17;;;18.20;93.10;;;;;;5061207;28;20295;-51
2021/06/24 12:22:59;;;;;;;8.87;6.57;;;18.10;94.60;;;;;;5059160;28;20257;-52
2021/06/24 12:25:34;;;;;;;11.17;7.33;;;17.90;94.40;;;;;;5056312;28;20285;-52
2021/06/24 12:28:03;;;;;;;12.17;7.57;;;18.00;95.10;;;;;;5055734;28;20196;-52
2021/06/24 12:30:33;;;;;;;6.20;5.40;;;18.10;97.50;;;;;;5056803;28;20303;-51
2021/06/24 12:33:05;;;;;;;9.03;6.50;;;18.10;99.10;;;;;;5056793;28;20816;-52
2021/06/24 12:35:38;;;;;;;11.13;6.77;;;18.10;99.30;;;;;;5052515;28;20606;-52
2021/06/24 12:38:07;;;;;;;6.90;6.00;;;17.90;99.90;;;;;;5053437;28;20233;-51
2021/06/24 12:40:38;;;;;;;9.93;5.67;;;18.00;99.90;;;;;;5046914;28;20733;-52
2021/06/24 12:43:08;;;;;;;8.13;6.20;;;18.00;99.90;;;;;;5055109;28;20225;-52
2021/06/24 12:45:48;;;;;;;8.13;6.63;;;18.00;99.10;;;;;;5051037;28;20194;-51
2021/06/24 12:48:27;;;;;;;7.93;6.47;;;17.80;99.90;;;;;;5052653;28;20645;-52
2021/06/24 12:50:56;;;;;;;9.33;7.03;;;17.90;99.90;;;;;;5057127;28;20732;-51
2021/06/24 12:53:33;;;;;;;7.67;6.23;;;17.80;99.90;;;;;;5057574;28;20263;-51
2021/06/24 12:56:00;;;;;;;6.90;5.97;;;17.80;99.90;;;;;;5052624;28;20224;-51
2021/06/24 12:58:27;;;;;;;7.20;6.17;;;18.00;99.90;;;;;;5053270;28;20600;-52
2021/06/24 13:01:09;;;;;;;8.17;6.10;;;18.00;99.90;;;;;;5051574;28;20222;-52
2021/06/24 13:03:39;;;;;;;9.53;6.00;;;18.10;99.90;;;;;;5054363;28;20200;-52
2021/06/24 13:06:27;;;;;;;7.73;6.13;;;18.30;99.90;;;;;;5049415;28;20319;-51
2021/06/24 13:09:09;;;;;;;9.80;6.93;;;18.20;98.20;;;;;;5051369;28;20230;-52
2021/06/24 13:11:46;;;;;;;9.27;7.07;;;18.00;99.90;;;;;;5051259;28;20675;-52
2021/06/24 13:14:18;;;;;;;9.37;7.50;;;17.80;99.90;;;;;;5055907;28;20270;-58
2021/06/24 13:16:47;;;;;;;12.40;7.57;;;17.80;99.90;;;;;;5052141;28;20751;-59
2021/06/24 13:19:37;;;;;;;10.43;6.87;;;17.50;99.90;;;;;;5055262;28;20198;-59